sensor_id;sensor_type;location;lat;lon;timestamp;P1;durP1;ratioP1;P2;durP2;ratioP2
48791;SDS011;34587;48.816;9.420;2024-03-08T00:01:52;23.05;;;12.73;;
48791;SDS011;34587;48.816;9.420;2024-03-08T00:04:17;22.83;;;12.50;;
48791;SDS011;34587;48.816;9.420;2024-03-08T00:06:43;27.17;;;12.02;;
48791;SDS011;34587;48.816;9.420;2024-03-08T00:09:11;20.35;;;11.52;;
48791;SDS011;34587;48.816;9.420;2024-03-08T00:11:37;27.67;;;12.52;;
48791;SDS011;34587;48.816;9.420;2024-03-08T00:14:02;24.17;;;11.02;;
48791;SDS011;34587;48.816;9.420;2024-03-08T00:16:31;24.85;;;11.73;;
48791;SDS011;34587;48.816;9.420;2024-03-08T00:18:57;29.50;;;11.82;;
48791;SDS011;34587;48.816;9.420;2024-03-08T00:21:22;25.05;;;12.98;;
48791;SDS011;34587;48.816;9.420;2024-03-08T00:23:47;28.92;;;12.27;;
48791;SDS011;34587;48.816;9.420;2024-03-08T00:26:12;27.13;;;12.23;;
48791;SDS011;34587;48.816;9.420;2024-03-08T00:28:38;25.25;;;12.02;;
48791;SDS011;34587;48.816;9.420;2024-03-08T00:31:03;20.63;;;11.45;;
48791;SDS011;34587;48.816;9.420;2024-03-08T00:33:28;26.38;;;11.18;;
48791;SDS011;34587;48.816;9.420;2024-03-08T00:35:54;31.95;;;12.73;;
48791;SDS011;34587;48.816;9.420;2024-03-08T00:38:19;27.25;;;12.48;;
48791;SDS011;34587;48.816;9.420;2024-03-08T00:40:45;30.90;;;12.45;;
48791;SDS011;34587;48.816;9.420;2024-03-08T00:43:10;32.85;;;12.48;;
48791;SDS011;34587;48.816;9.420;2024-03-08T00:45:35;26.23;;;11.68;;
48791;SDS011;34587;48.816;9.420;2024-03-08T00:48:02;27.70;;;11.73;;
48791;SDS011;34587;48.816;9.420;2024-03-08T00:50:28;24.30;;;11.38;;
48791;SDS011;34587;48.816;9.420;2024-03-08T00:52:53;24.33;;;11.65;;
48791;SDS011;34587;48.816;9.420;2024-03-08T00:55:18;38.65;;;13.30;;
48791;SDS011;34587;48.816;9.420;2024-03-08T00:57:43;22.02;;;11.05;;
48791;SDS011;34587;48.816;9.420;2024-03-08T05:15:41;25.95;;;10.35;;
48791;SDS011;34587;48.816;9.420;2024-03-08T05:18:07;29.27;;;10.48;;
48791;SDS011;34587;48.816;9.420;2024-03-08T05:20:33;25.55;;;11.40;;
48791;SDS011;34587;48.816;9.420;2024-03-08T05:22:58;22.08;;;10.10;;
48791;SDS011;34587;48.816;9.420;2024-03-08T05:25:25;22.48;;;10.13;;
48791;SDS011;34587;48.816;9.420;2024-03-08T05:27:51;17.92;;;10.02;;
48791;SDS011;34587;48.816;9.420;2024-03-08T05:30:16;23.17;;;11.07;;
48791;SDS011;34587;48.816;9.420;2024-03-08T05:32:42;31.70;;;11.52;;
48791;SDS011;34587;48.816;9.420;2024-03-08T05:35:10;27.20;;;11.00;;
48791;SDS011;34587;48.816;9.420;2024-03-08T05:37:41;28.15;;;10.63;;
48791;SDS011;34587;48.816;9.420;2024-03-08T05:40:07;23.10;;;10.85;;
48791;SDS011;34587;48.816;9.420;2024-03-08T05:42:37;26.45;;;10.35;;
48791;SDS011;34587;48.816;9.420;2024-03-08T05:45:06;20.48;;;10.00;;
48791;SDS011;34587;48.816;9.420;2024-03-08T05:47:31;25.88;;;11.70;;
48791;SDS011;34587;48.816;9.420;2024-03-08T05:49:58;28.63;;;11.13;;
48791;SDS011;34587;48.816;9.420;2024-03-08T05:52:24;24.48;;;10.15;;
48791;SDS011;34587;48.816;9.420;2024-03-08T05:54:50;18.70;;;10.55;;
48791;SDS011;34587;48.816;9.420;2024-03-08T05:57:16;23.05;;;10.60;;
48791;SDS011;34587;48.816;9.420;2024-03-08T05:59:41;22.90;;;10.77;;
48791;SDS011;34587;48.816;9.420;2024-03-08T06:02:07;23.27;;;10.55;;
48791;SDS011;34587;48.816;9.420;2024-03-08T06:04:32;25.95;;;11.13;;
48791;SDS011;34587;48.816;9.420;2024-03-08T06:06:57;22.73;;;11.60;;
48791;SDS011;34587;48.816;9.420;2024-03-08T06:09:23;28.30;;;10.50;;
48791;SDS011;34587;48.816;9.420;2024-03-08T06:11:49;23.08;;;11.23;;
48791;SDS011;34587;48.816;9.420;2024-03-08T06:14:15;26.00;;;11.38;;
48791;SDS011;34587;48.816;9.420;2024-03-08T06:16:43;24.02;;;10.80;;
48791;SDS011;34587;48.816;9.420;2024-03-08T06:19:09;27.35;;;12.85;;
48791;SDS011;34587;48.816;9.420;2024-03-08T06:21:35;30.63;;;12.05;;
48791;SDS011;34587;48.816;9.420;2024-03-08T06:24:00;27.00;;;12.98;;
48791;SDS011;34587;48.816;9.420;2024-03-08T06:26:25;21.92;;;12.13;;
48791;SDS011;34587;48.816;9.420;2024-03-08T06:28:53;29.10;;;11.80;;
48791;SDS011;34587;48.816;9.420;2024-03-08T06:31:18;21.38;;;10.93;;
48791;SDS011;34587;48.816;9.420;2024-03-08T06:33:44;22.85;;;12.57;;
48791;SDS011;34587;48.816;9.420;2024-03-08T06:36:10;20.23;;;10.85;;
48791;SDS011;34587;48.816;9.420;2024-03-08T06:38:36;25.23;;;11.98;;
48791;SDS011;34587;48.816;9.420;2024-03-08T06:41:07;22.05;;;11.15;;
48791;SDS011;34587;48.816;9.420;2024-03-08T06:43:32;24.13;;;12.18;;
48791;SDS011;34587;48.816;9.420;2024-03-08T06:45:59;28.70;;;11.20;;
48791;SDS011;34587;48.816;9.420;2024-03-08T06:48:24;24.45;;;12.30;;
48791;SDS011;34587;48.816;9.420;2024-03-08T06:50:50;26.40;;;12.32;;
48791;SDS011;34587;48.816;9.420;2024-03-08T06:53:15;25.20;;;11.75;;
48791;SDS011;34587;48.816;9.420;2024-03-08T06:55:43;19.77;;;10.65;;
48791;SDS011;34587;48.816;9.420;2024-03-08T06:58:09;20.65;;;11.50;;
48791;SDS011;34587;48.816;9.420;2024-03-08T07:00:35;21.20;;;11.18;;
48791;SDS011;34587;48.816;9.420;2024-03-08T07:03:01;27.83;;;11.55;;
48791;SDS011;34587;48.816;9.420;2024-03-08T07:05:26;23.02;;;11.48;;
48791;SDS011;34587;48.816;9.420;2024-03-08T07:07:52;25.48;;;11.98;;
48791;SDS011;34587;48.816;9.420;2024-03-08T07:10:19;23.73;;;11.30;;
48791;SDS011;34587;48.816;9.420;2024-03-08T07:12:45;18.75;;;11.00;;
48791;SDS011;34587;48.816;9.420;2024-03-08T07:15:11;26.13;;;12.60;;
48791;SDS011;34587;48.816;9.420;2024-03-08T07:17:39;24.23;;;11.20;;
48791;SDS011;34587;48.816;9.420;2024-03-08T07:20:05;23.73;;;11.88;;
48791;SDS011;34587;48.816;9.420;2024-03-08T07:22:35;27.83;;;11.35;;
48791;SDS011;34587;48.816;9.420;2024-03-08T07:25:02;24.55;;;12.10;;
48791;SDS011;34587;48.816;9.420;2024-03-08T07:27:33;25.95;;;12.55;;
48791;SDS011;34587;48.816;9.420;2024-03-08T07:29:59;23.15;;;11.73;;
48791;SDS011;34587;48.816;9.420;2024-03-08T07:32:25;21.60;;;11.38;;
48791;SDS011;34587;48.816;9.420;2024-03-08T07:34:53;22.48;;;12.07;;
48791;SDS011;34587;48.816;9.420;2024-03-08T07:37:20;28.02;;;12.43;;
48791;SDS011;34587;48.816;9.420;2024-03-08T07:39:45;21.40;;;11.40;;
48791;SDS011;34587;48.816;9.420;2024-03-08T07:42:11;22.05;;;10.52;;
48791;SDS011;34587;48.816;9.420;2024-03-08T07:44:37;24.83;;;11.80;;
48791;SDS011;34587;48.816;9.420;2024-03-08T07:47:02;27.35;;;12.80;;
48791;SDS011;34587;48.816;9.420;2024-03-08T07:49:28;21.00;;;10.57;;
48791;SDS011;34587;48.816;9.420;2024-03-08T07:51:54;22.67;;;11.07;;
48791;SDS011;34587;48.816;9.420;2024-03-08T07:54:20;20.65;;;11.27;;
48791;SDS011;34587;48.816;9.420;2024-03-08T07:56:45;21.23;;;11.95;;
48791;SDS011;34587;48.816;9.420;2024-03-08T07:59:11;35.92;;;11.90;;
48791;SDS011;34587;48.816;9.420;2024-03-08T08:01:37;22.75;;;11.65;;
48791;SDS011;34587;48.816;9.420;2024-03-08T08:04:02;25.13;;;11.95;;
48791;SDS011;34587;48.816;9.420;2024-03-08T08:06:28;22.33;;;10.55;;
48791;SDS011;34587;48.816;9.420;2024-03-08T08:08:56;23.50;;;11.93;;
48791;SDS011;34587;48.816;9.420;2024-03-08T08:11:22;25.63;;;11.57;;
48791;SDS011;34587;48.816;9.420;2024-03-08T08:13:47;23.38;;;11.68;;
48791;SDS011;34587;48.816;9.420;2024-03-08T08:16:13;26.13;;;11.77;;
48791;SDS011;34587;48.816;9.420;2024-03-08T08:18:38;22.65;;;11.38;;
48791;SDS011;34587;48.816;9.420;2024-03-08T08:21:04;21.38;;;11.25;;
48791;SDS011;34587;48.816;9.420;2024-03-08T08:23:31;23.90;;;11.43;;
48791;SDS011;34587;48.816;9.420;2024-03-08T08:25:57;31.13;;;11.93;;
48791;SDS011;34587;48.816;9.420;2024-03-08T08:28:22;24.52;;;11.15;;
48791;SDS011;34587;48.816;9.420;2024-03-08T08:30:48;24.35;;;10.93;;
48791;SDS011;34587;48.816;9.420;2024-03-08T08:33:14;22.90;;;12.02;;
48791;SDS011;34587;48.816;9.420;2024-03-08T08:35:40;23.88;;;11.45;;
48791;SDS011;34587;48.816;9.420;2024-03-08T08:38:05;24.35;;;11.02;;
48791;SDS011;34587;48.816;9.420;2024-03-08T08:40:32;21.33;;;10.40;;
48791;SDS011;34587;48.816;9.420;2024-03-08T08:42:58;29.42;;;11.40;;
48791;SDS011;34587;48.816;9.420;2024-03-08T08:45:23;21.00;;;10.70;;
48791;SDS011;34587;48.816;9.420;2024-03-08T08:47:48;21.92;;;10.38;;
48791;SDS011;34587;48.816;9.420;2024-03-08T08:50:14;31.75;;;11.27;;
48791;SDS011;34587;48.816;9.420;2024-03-08T08:52:41;23.83;;;10.93;;
48791;SDS011;34587;48.816;9.420;2024-03-08T08:55:08;29.75;;;11.48;;
48791;SDS011;34587;48.816;9.420;2024-03-08T08:57:34;28.98;;;11.52;;
48791;SDS011;34587;48.816;9.420;2024-03-08T09:00:00;24.73;;;10.77;;
48791;SDS011;34587;48.816;9.420;2024-03-08T09:02:26;22.63;;;11.48;;
48791;SDS011;34587;48.816;9.420;2024-03-08T09:04:51;25.88;;;11.02;;
48791;SDS011;34587;48.816;9.420;2024-03-08T09:07:17;18.42;;;10.32;;
48791;SDS011;34587;48.816;9.420;2024-03-08T09:09:44;21.23;;;10.52;;
48791;SDS011;34587;48.816;9.420;2024-03-08T09:12:09;19.13;;;10.02;;
48791;SDS011;34587;48.816;9.420;2024-03-08T09:14:38;21.25;;;10.77;;
48791;SDS011;34587;48.816;9.420;2024-03-08T09:17:07;26.35;;;11.50;;
48791;SDS011;34587;48.816;9.420;2024-03-08T09:19:35;22.75;;;10.40;;
48791;SDS011;34587;48.816;9.420;2024-03-08T09:22:01;24.17;;;10.65;;
48791;SDS011;34587;48.816;9.420;2024-03-08T09:24:29;23.80;;;11.05;;
48791;SDS011;34587;48.816;9.420;2024-03-08T09:26:54;22.67;;;10.82;;
48791;SDS011;34587;48.816;9.420;2024-03-08T09:29:20;20.33;;;10.73;;
48791;SDS011;34587;48.816;9.420;2024-03-08T09:31:45;28.00;;;11.30;;
48791;SDS011;34587;48.816;9.420;2024-03-08T09:34:11;22.50;;;10.85;;
48791;SDS011;34587;48.816;9.420;2024-03-08T09:36:36;25.75;;;11.68;;
48791;SDS011;34587;48.816;9.420;2024-03-08T09:39:02;19.70;;;9.52;;
48791;SDS011;34587;48.816;9.420;2024-03-08T09:41:27;23.02;;;10.95;;
48791;SDS011;34587;48.816;9.420;2024-03-08T09:43:55;21.73;;;10.43;;
48791;SDS011;34587;48.816;9.420;2024-03-08T09:46:22;29.95;;;11.85;;
48791;SDS011;34587;48.816;9.420;2024-03-08T09:48:48;21.50;;;10.55;;
48791;SDS011;34587;48.816;9.420;2024-03-08T09:51:13;26.33;;;10.85;;
48791;SDS011;34587;48.816;9.420;2024-03-08T09:53:40;25.38;;;10.93;;
48791;SDS011;34587;48.816;9.420;2024-03-08T09:56:08;25.85;;;12.00;;
48791;SDS011;34587;48.816;9.420;2024-03-08T09:58:34;25.38;;;12.35;;
48791;SDS011;34587;48.816;9.420;2024-03-08T10:00:59;22.83;;;11.07;;
48791;SDS011;34587;48.816;9.420;2024-03-08T10:03:29;24.95;;;12.07;;
48791;SDS011;34587;48.816;9.420;2024-03-08T10:05:58;24.17;;;11.00;;
48791;SDS011;34587;48.816;9.420;2024-03-08T10:08:27;19.55;;;10.25;;
48791;SDS011;34587;48.816;9.420;2024-03-08T10:10:54;22.80;;;11.25;;
48791;SDS011;34587;48.816;9.420;2024-03-08T10:13:20;22.42;;;10.05;;
48791;SDS011;34587;48.816;9.420;2024-03-08T10:15:45;24.73;;;11.25;;
48791;SDS011;34587;48.816;9.420;2024-03-08T10:18:11;22.50;;;11.50;;
48791;SDS011;34587;48.816;9.420;2024-03-08T10:20:36;22.73;;;11.38;;
48791;SDS011;34587;48.816;9.420;2024-03-08T10:23:02;19.27;;;9.82;;
48791;SDS011;34587;48.816;9.420;2024-03-08T10:25:30;22.08;;;11.32;;
48791;SDS011;34587;48.816;9.420;2024-03-08T10:27:56;23.35;;;11.18;;
48791;SDS011;34587;48.816;9.420;2024-03-08T10:30:21;29.98;;;11.10;;
48791;SDS011;34587;48.816;9.420;2024-03-08T10:32:47;22.48;;;10.40;;
48791;SDS011;34587;48.816;9.420;2024-03-08T10:35:13;21.95;;;11.98;;
48791;SDS011;34587;48.816;9.420;2024-03-08T10:40:18;21.55;;;10.02;;
48791;SDS011;34587;48.816;9.420;2024-03-08T10:42:54;21.02;;;10.05;;
48791;SDS011;34587;48.816;9.420;2024-03-08T10:50:34;21.20;;;10.48;;
48791;SDS011;34587;48.816;9.420;2024-03-08T10:53:00;25.35;;;11.27;;
48791;SDS011;34587;48.816;9.420;2024-03-08T10:55:28;24.52;;;12.07;;
48791;SDS011;34587;48.816;9.420;2024-03-08T10:57:55;22.88;;;9.85;;
48791;SDS011;34587;48.816;9.420;2024-03-08T11:00:20;22.00;;;11.07;;
48791;SDS011;34587;48.816;9.420;2024-03-08T11:02:51;25.95;;;10.65;;
48791;SDS011;34587;48.816;9.420;2024-03-08T11:05:31;21.70;;;10.40;;
48791;SDS011;34587;48.816;9.420;2024-03-08T11:08:03;21.50;;;10.77;;
48791;SDS011;34587;48.816;9.420;2024-03-08T11:10:30;23.08;;;10.77;;
48791;SDS011;34587;48.816;9.420;2024-03-08T11:12:56;22.95;;;10.48;;
48791;SDS011;34587;48.816;9.420;2024-03-08T11:15:21;18.08;;;9.52;;
48791;SDS011;34587;48.816;9.420;2024-03-08T11:17:49;20.65;;;10.65;;
48791;SDS011;34587;48.816;9.420;2024-03-08T11:22:42;20.27;;;10.82;;
48791;SDS011;34587;48.816;9.420;2024-03-08T11:28:06;26.02;;;11.77;;
48791;SDS011;34587;48.816;9.420;2024-03-08T11:30:35;22.02;;;11.27;;
48791;SDS011;34587;48.816;9.420;2024-03-08T11:33:03;21.30;;;10.93;;
48791;SDS011;34587;48.816;9.420;2024-03-08T11:35:28;20.38;;;10.88;;
48791;SDS011;34587;48.816;9.420;2024-03-08T11:37:53;23.50;;;12.05;;
48791;SDS011;34587;48.816;9.420;2024-03-08T11:40:19;24.05;;;11.70;;
48791;SDS011;34587;48.816;9.420;2024-03-08T11:42:46;24.98;;;12.00;;
48791;SDS011;34587;48.816;9.420;2024-03-08T11:45:16;22.80;;;10.85;;
48791;SDS011;34587;48.816;9.420;2024-03-08T11:47:43;24.30;;;11.98;;
48791;SDS011;34587;48.816;9.420;2024-03-08T11:50:11;21.65;;;10.50;;
48791;SDS011;34587;48.816;9.420;2024-03-08T11:52:37;25.70;;;11.07;;
48791;SDS011;34587;48.816;9.420;2024-03-08T11:55:03;18.67;;;10.02;;
48791;SDS011;34587;48.816;9.420;2024-03-08T11:57:30;19.80;;;9.52;;
48791;SDS011;34587;48.816;9.420;2024-03-08T11:59:57;19.58;;;9.82;;
48791;SDS011;34587;48.816;9.420;2024-03-08T12:02:23;20.60;;;10.32;;
48791;SDS011;34587;48.816;9.420;2024-03-08T12:04:59;18.20;;;9.70;;
48791;SDS011;34587;48.816;9.420;2024-03-08T12:07:25;21.63;;;10.68;;
48791;SDS011;34587;48.816;9.420;2024-03-08T12:12:43;21.45;;;10.88;;
48791;SDS011;34587;48.816;9.420;2024-03-08T12:15:09;22.73;;;10.25;;
48791;SDS011;34587;48.816;9.420;2024-03-08T12:17:36;22.48;;;10.73;;
48791;SDS011;34587;48.816;9.420;2024-03-08T12:20:15;20.92;;;11.90;;
48791;SDS011;34587;48.816;9.420;2024-03-08T12:22:42;21.83;;;10.88;;
48791;SDS011;34587;48.816;9.420;2024-03-08T12:25:08;22.52;;;11.13;;
48791;SDS011;34587;48.816;9.420;2024-03-08T12:27:36;24.08;;;10.90;;
48791;SDS011;34587;48.816;9.420;2024-03-08T12:33:19;20.48;;;10.23;;
48791;SDS011;34587;48.816;9.420;2024-03-08T12:35:51;21.52;;;10.30;;
48791;SDS011;34587;48.816;9.420;2024-03-08T12:38:23;21.83;;;11.32;;
48791;SDS011;34587;48.816;9.420;2024-03-08T12:40:54;20.08;;;9.95;;
48791;SDS011;34587;48.816;9.420;2024-03-08T12:43:21;24.02;;;11.80;;
48791;SDS011;34587;48.816;9.420;2024-03-08T12:45:47;24.42;;;10.95;;
48791;SDS011;34587;48.816;9.420;2024-03-08T12:48:13;21.17;;;11.57;;
48791;SDS011;34587;48.816;9.420;2024-03-08T12:50:42;23.65;;;11.45;;
48791;SDS011;34587;48.816;9.420;2024-03-08T12:53:12;23.90;;;10.93;;
48791;SDS011;34587;48.816;9.420;2024-03-08T12:55:38;21.05;;;11.43;;
48791;SDS011;34587;48.816;9.420;2024-03-08T12:58:03;23.40;;;10.32;;
48791;SDS011;34587;48.816;9.420;2024-03-08T13:00:32;25.30;;;11.30;;
48791;SDS011;34587;48.816;9.420;2024-03-08T13:02:57;22.60;;;10.70;;
48791;SDS011;34587;48.816;9.420;2024-03-08T13:05:24;19.90;;;9.70;;
48791;SDS011;34587;48.816;9.420;2024-03-08T13:07:49;27.30;;;11.05;;
48791;SDS011;34587;48.816;9.420;2024-03-08T13:10:15;21.85;;;10.70;;
48791;SDS011;34587;48.816;9.420;2024-03-08T13:12:41;22.75;;;10.95;;
48791;SDS011;34587;48.816;9.420;2024-03-08T13:15:10;20.63;;;10.23;;
48791;SDS011;34587;48.816;9.420;2024-03-08T13:17:45;21.95;;;10.73;;
48791;SDS011;34587;48.816;9.420;2024-03-08T13:20:13;22.38;;;10.27;;
48791;SDS011;34587;48.816;9.420;2024-03-08T13:22:45;23.50;;;11.85;;
48791;SDS011;34587;48.816;9.420;2024-03-08T13:25:10;22.35;;;11.15;;
48791;SDS011;34587;48.816;9.420;2024-03-08T13:27:38;31.13;;;13.73;;
48791;SDS011;34587;48.816;9.420;2024-03-08T13:30:10;25.50;;;12.30;;
48791;SDS011;34587;48.816;9.420;2024-03-08T13:32:39;24.52;;;11.40;;
48791;SDS011;34587;48.816;9.420;2024-03-08T13:35:05;26.25;;;11.25;;
48791;SDS011;34587;48.816;9.420;2024-03-08T13:37:37;20.25;;;10.02;;
48791;SDS011;34587;48.816;9.420;2024-03-08T13:40:04;20.33;;;10.20;;
48791;SDS011;34587;48.816;9.420;2024-03-08T13:42:30;21.45;;;10.60;;
48791;SDS011;34587;48.816;9.420;2024-03-08T13:44:56;22.15;;;10.38;;
48791;SDS011;34587;48.816;9.420;2024-03-08T13:47:21;19.23;;;10.10;;
48791;SDS011;34587;48.816;9.420;2024-03-08T13:49:46;26.08;;;11.48;;
48791;SDS011;34587;48.816;9.420;2024-03-08T13:52:11;19.45;;;10.27;;
48791;SDS011;34587;48.816;9.420;2024-03-08T13:54:41;22.88;;;10.35;;
48791;SDS011;34587;48.816;9.420;2024-03-08T13:57:07;22.80;;;10.10;;
48791;SDS011;34587;48.816;9.420;2024-03-08T13:59:35;22.40;;;10.18;;
48791;SDS011;34587;48.816;9.420;2024-03-08T14:02:01;18.38;;;10.57;;
48791;SDS011;34587;48.816;9.420;2024-03-08T14:04:29;28.45;;;11.43;;
48791;SDS011;34587;48.816;9.420;2024-03-08T14:06:55;19.92;;;9.88;;
48791;SDS011;34587;48.816;9.420;2024-03-08T14:09:24;27.05;;;11.20;;
48791;SDS011;34587;48.816;9.420;2024-03-08T14:11:50;19.52;;;10.13;;
48791;SDS011;34587;48.816;9.420;2024-03-08T14:14:18;19.48;;;10.82;;
48791;SDS011;34587;48.816;9.420;2024-03-08T14:16:45;22.15;;;9.80;;
48791;SDS011;34587;48.816;9.420;2024-03-08T14:19:11;22.40;;;10.77;;
48791;SDS011;34587;48.816;9.420;2024-03-08T14:21:36;22.15;;;10.43;;
48791;SDS011;34587;48.816;9.420;2024-03-08T14:24:04;23.83;;;12.35;;
48791;SDS011;34587;48.816;9.420;2024-03-08T14:26:29;26.92;;;10.63;;
48791;SDS011;34587;48.816;9.420;2024-03-08T14:28:55;21.05;;;11.00;;
48791;SDS011;34587;48.816;9.420;2024-03-08T14:31:20;20.60;;;9.40;;
48791;SDS011;34587;48.816;9.420;2024-03-08T14:33:48;23.67;;;10.88;;
48791;SDS011;34587;48.816;9.420;2024-03-08T14:36:14;23.13;;;10.40;;
48791;SDS011;34587;48.816;9.420;2024-03-08T14:38:42;24.05;;;10.38;;
48791;SDS011;34587;48.816;9.420;2024-03-08T14:41:07;17.17;;;9.65;;
48791;SDS011;34587;48.816;9.420;2024-03-08T14:43:33;16.42;;;8.90;;
48791;SDS011;34587;48.816;9.420;2024-03-08T14:45:58;20.33;;;10.32;;
48791;SDS011;34587;48.816;9.420;2024-03-08T14:48:23;20.27;;;10.57;;
48791;SDS011;34587;48.816;9.420;2024-03-08T14:50:49;26.75;;;10.60;;
48791;SDS011;34587;48.816;9.420;2024-03-08T14:53:15;19.73;;;9.77;;
48791;SDS011;34587;48.816;9.420;2024-03-08T14:55:41;21.42;;;10.25;;
48791;SDS011;34587;48.816;9.420;2024-03-08T14:58:07;21.42;;;9.75;;
48791;SDS011;34587;48.816;9.420;2024-03-08T15:00:34;20.17;;;9.75;;
48791;SDS011;34587;48.816;9.420;2024-03-08T15:02:59;16.67;;;8.88;;
48791;SDS011;34587;48.816;9.420;2024-03-08T15:05:26;21.98;;;10.02;;
48791;SDS011;34587;48.816;9.420;2024-03-08T15:07:52;20.92;;;10.88;;
48791;SDS011;34587;48.816;9.420;2024-03-08T15:10:18;18.80;;;9.77;;
48791;SDS011;34587;48.816;9.420;2024-03-08T15:12:47;18.52;;;10.40;;
48791;SDS011;34587;48.816;9.420;2024-03-08T15:15:13;19.23;;;8.57;;
48791;SDS011;34587;48.816;9.420;2024-03-08T15:17:49;16.95;;;8.82;;
48791;SDS011;34587;48.816;9.420;2024-03-08T15:20:16;19.92;;;10.23;;
48791;SDS011;34587;48.816;9.420;2024-03-08T15:22:48;16.65;;;8.80;;
48791;SDS011;34587;48.816;9.420;2024-03-08T15:25:14;20.25;;;9.82;;
48791;SDS011;34587;48.816;9.420;2024-03-08T15:27:45;20.02;;;9.52;;
48791;SDS011;34587;48.816;9.420;2024-03-08T15:30:11;17.38;;;9.18;;
48791;SDS011;34587;48.816;9.420;2024-03-08T15:32:38;21.65;;;10.10;;
48791;SDS011;34587;48.816;9.420;2024-03-08T15:35:06;19.58;;;8.63;;
48791;SDS011;34587;48.816;9.420;2024-03-08T15:37:32;19.98;;;9.20;;
48791;SDS011;34587;48.816;9.420;2024-03-08T15:39:58;20.85;;;8.82;;
48791;SDS011;34587;48.816;9.420;2024-03-08T15:42:24;17.15;;;8.70;;
48791;SDS011;34587;48.816;9.420;2024-03-08T15:44:50;17.42;;;9.40;;
48791;SDS011;34587;48.816;9.420;2024-03-08T15:47:16;22.00;;;10.13;;
48791;SDS011;34587;48.816;9.420;2024-03-08T15:49:41;16.27;;;8.77;;
48791;SDS011;34587;48.816;9.420;2024-03-08T15:52:09;16.90;;;9.32;;
48791;SDS011;34587;48.816;9.420;2024-03-08T15:54:36;16.13;;;8.80;;
48791;SDS011;34587;48.816;9.420;2024-03-08T15:57:02;21.35;;;9.40;;
48791;SDS011;34587;48.816;9.420;2024-03-08T15:59:33;22.70;;;9.50;;
48791;SDS011;34587;48.816;9.420;2024-03-08T16:02:02;16.08;;;8.77;;
48791;SDS011;34587;48.816;9.420;2024-03-08T16:04:28;23.05;;;9.02;;
48791;SDS011;34587;48.816;9.420;2024-03-08T16:06:54;17.42;;;9.20;;
48791;SDS011;34587;48.816;9.420;2024-03-08T16:09:20;21.02;;;9.02;;
48791;SDS011;34587;48.816;9.420;2024-03-08T16:11:45;15.98;;;8.45;;
48791;SDS011;34587;48.816;9.420;2024-03-08T16:14:11;18.55;;;9.05;;
48791;SDS011;34587;48.816;9.420;2024-03-08T16:16:39;18.52;;;9.20;;
48791;SDS011;34587;48.816;9.420;2024-03-08T16:19:04;20.85;;;9.50;;
48791;SDS011;34587;48.816;9.420;2024-03-08T16:21:33;20.67;;;8.63;;
48791;SDS011;34587;48.816;9.420;2024-03-08T16:23:59;17.00;;;9.23;;
48791;SDS011;34587;48.816;9.420;2024-03-08T16:26:25;17.17;;;8.25;;
48791;SDS011;34587;48.816;9.420;2024-03-08T16:28:52;20.80;;;8.93;;
48791;SDS011;34587;48.816;9.420;2024-03-08T16:31:18;17.30;;;8.30;;
48791;SDS011;34587;48.816;9.420;2024-03-08T16:33:44;19.38;;;8.15;;
48791;SDS011;34587;48.816;9.420;2024-03-08T16:36:09;17.88;;;8.52;;
48791;SDS011;34587;48.816;9.420;2024-03-08T16:38:36;16.63;;;8.65;;
48791;SDS011;34587;48.816;9.420;2024-03-08T16:41:03;15.38;;;7.78;;
48791;SDS011;34587;48.816;9.420;2024-03-08T16:43:29;14.02;;;8.15;;
48791;SDS011;34587;48.816;9.420;2024-03-08T16:45:54;13.25;;;7.57;;
48791;SDS011;34587;48.816;9.420;2024-03-08T16:48:20;17.40;;;8.70;;
48791;SDS011;34587;48.816;9.420;2024-03-08T16:50:48;17.42;;;9.20;;
48791;SDS011;34587;48.816;9.420;2024-03-08T16:53:13;18.48;;;8.63;;
48791;SDS011;34587;48.816;9.420;2024-03-08T16:55:40;16.08;;;8.65;;
48791;SDS011;34587;48.816;9.420;2024-03-08T16:58:06;19.08;;;8.85;;
48791;SDS011;34587;48.816;9.420;2024-03-08T17:00:33;19.85;;;8.98;;
48791;SDS011;34587;48.816;9.420;2024-03-08T17:02:59;20.48;;;8.40;;
48791;SDS011;34587;48.816;9.420;2024-03-08T17:05:26;16.83;;;8.40;;
48791;SDS011;34587;48.816;9.420;2024-03-08T17:07:53;16.42;;;8.50;;
48791;SDS011;34587;48.816;9.420;2024-03-08T17:10:31;15.93;;;7.95;;
48791;SDS011;34587;48.816;9.420;2024-03-08T17:12:59;15.98;;;8.02;;
48791;SDS011;34587;48.816;9.420;2024-03-08T17:15:25;15.77;;;7.72;;
48791;SDS011;34587;48.816;9.420;2024-03-08T17:17:52;17.25;;;8.77;;
48791;SDS011;34587;48.816;9.420;2024-03-08T17:20:24;14.57;;;8.23;;
48791;SDS011;34587;48.816;9.420;2024-03-08T17:22:51;13.30;;;7.50;;
48791;SDS011;34587;48.816;9.420;2024-03-08T17:25:20;13.93;;;7.25;;
48791;SDS011;34587;48.816;9.420;2024-03-08T17:27:56;14.20;;;7.30;;
48791;SDS011;34587;48.816;9.420;2024-03-08T17:30:24;13.02;;;7.07;;
48791;SDS011;34587;48.816;9.420;2024-03-08T17:32:54;14.65;;;7.70;;
48791;SDS011;34587;48.816;9.420;2024-03-08T17:35:21;12.98;;;7.03;;
48791;SDS011;34587;48.816;9.420;2024-03-08T17:37:48;18.48;;;8.13;;
48791;SDS011;34587;48.816;9.420;2024-03-08T17:40:20;18.50;;;7.78;;
48791;SDS011;34587;48.816;9.420;2024-03-08T17:42:53;14.38;;;7.47;;
48791;SDS011;34587;48.816;9.420;2024-03-08T17:45:20;15.00;;;7.57;;
48791;SDS011;34587;48.816;9.420;2024-03-08T17:47:48;12.73;;;7.22;;
48791;SDS011;34587;48.816;9.420;2024-03-08T17:50:14;15.02;;;7.28;;
48791;SDS011;34587;48.816;9.420;2024-03-08T17:52:40;12.18;;;6.65;;
48791;SDS011;34587;48.816;9.420;2024-03-08T17:55:07;15.68;;;7.53;;
48791;SDS011;34587;48.816;9.420;2024-03-08T17:57:37;13.63;;;6.88;;
48791;SDS011;34587;48.816;9.420;2024-03-08T18:00:05;15.73;;;7.55;;
48791;SDS011;34587;48.816;9.420;2024-03-08T18:02:45;11.45;;;7.07;;
48791;SDS011;34587;48.816;9.420;2024-03-08T18:05:14;17.45;;;7.82;;
48791;SDS011;34587;48.816;9.420;2024-03-08T18:07:41;16.23;;;7.88;;
48791;SDS011;34587;48.816;9.420;2024-03-08T18:10:06;11.18;;;6.63;;
48791;SDS011;34587;48.816;9.420;2024-03-08T18:12:35;14.82;;;7.50;;
48791;SDS011;34587;48.816;9.420;2024-03-08T18:15:00;16.17;;;8.23;;
48791;SDS011;34587;48.816;9.420;2024-03-08T18:17:25;11.38;;;6.82;;
48791;SDS011;34587;48.816;9.420;2024-03-08T18:19:52;13.38;;;6.60;;
48791;SDS011;34587;48.816;9.420;2024-03-08T18:22:18;13.35;;;6.97;;
48791;SDS011;34587;48.816;9.420;2024-03-08T18:24:43;12.57;;;6.88;;
48791;SDS011;34587;48.816;9.420;2024-03-08T18:27:11;14.55;;;8.15;;
48791;SDS011;34587;48.816;9.420;2024-03-08T18:29:36;14.27;;;7.05;;
48791;SDS011;34587;48.816;9.420;2024-03-08T18:32:01;11.32;;;6.60;;
48791;SDS011;34587;48.816;9.420;2024-03-08T18:34:27;14.77;;;6.90;;
48791;SDS011;34587;48.816;9.420;2024-03-08T18:36:52;13.68;;;7.35;;
48791;SDS011;34587;48.816;9.420;2024-03-08T18:39:18;14.75;;;7.65;;
48791;SDS011;34587;48.816;9.420;2024-03-08T18:41:43;15.38;;;6.38;;
48791;SDS011;34587;48.816;9.420;2024-03-08T18:44:09;14.90;;;6.55;;
48791;SDS011;34587;48.816;9.420;2024-03-08T18:46:35;15.40;;;6.45;;
48791;SDS011;34587;48.816;9.420;2024-03-08T18:49:03;14.13;;;7.15;;
48791;SDS011;34587;48.816;9.420;2024-03-08T18:51:30;12.88;;;7.25;;
48791;SDS011;34587;48.816;9.420;2024-03-08T18:53:55;14.65;;;6.55;;
48791;SDS011;34587;48.816;9.420;2024-03-08T18:56:20;11.80;;;5.97;;
48791;SDS011;34587;48.816;9.420;2024-03-08T18:58:46;12.68;;;6.68;;